Time;durP1;ratioP1;P1;durP2;ratioP2;P2;SDS_P1;SDS_P2;PMS_P1;PMS_P2;Temp;Humidity;BMP_temperature;BMP_pressure;BME280_temperature;BME280_humidity;BME280_pressure;Samples;Min_cycle;Max_cycle;Signal;HPM_P1;HPM_P2
2023/12/23 00:01:19;;;;;;;1.90;0.60;;;7.00;99.90;;;;;;5068489;28;20052;-28
2023/12/23 00:03:45;;;;;;;0.60;0.60;;;7.00;99.90;;;;;;5068240;28;20479;-34
2023/12/23 00:06:10;;;;;;;0.63;0.60;;;7.00;99.90;;;;;;5067729;28;20039;-29
2023/12/23 00:08:41;;;;;;;0.70;0.70;;;7.00;99.90;;;;;;5069161;28;20029;-30
2023/12/23 00:11:07;;;;;;;0.70;0.70;;;6.90;99.90;;;;;;5066162;28;20074;-30
2023/12/23 00:13:33;;;;;;;0.60;0.60;;;6.90;99.90;;;;;;5067157;28;20026;-31
2023/12/23 00:15:59;;;;;;;0.90;0.70;;;6.90;99.90;;;;;;5070198;28;20031;-30
2023/12/23 00:18:25;;;;;;;0.82;0.82;;;6.90;99.90;;;;;;5070137;28;20099;-29
2023/12/23 00:20:50;;;;;;;0.60;0.60;;;7.00;99.90;;;;;;5070574;28;20465;-29
2023/12/23 00:23:16;;;;;;;0.60;0.60;;;6.90;99.90;;;;;;5066333;28;20039;-31
2023/12/23 00:25:42;;;;;;;0.70;0.70;;;6.90;99.90;;;;;;5069555;28;21209;-31
2023/12/23 00:28:07;;;;;;;0.75;0.75;;;7.00;99.90;;;;;;5070425;28;20032;-31
2023/12/23 00:30:33;;;;;;;0.57;0.57;;;7.00;99.90;;;;;;5069766;28;20639;-33
2023/12/23 00:32:58;;;;;;;0.60;0.60;;;6.90;99.90;;;;;;5068002;28;20012;-30
2023/12/23 00:35:26;;;;;;;0.60;0.60;;;7.00;99.90;;;;;;5067327;28;20131;-33
2023/12/23 00:37:52;;;;;;;0.70;0.70;;;7.00;99.90;;;;;;5070555;28;20059;-30
2023/12/23 00:40:18;;;;;;;0.50;0.50;;;7.00;99.90;;;;;;5065526;28;20507;-33
2023/12/23 00:42:44;;;;;;;0.60;0.60;;;7.00;99.90;;;;;;5069427;28;20038;-30
2023/12/23 00:45:09;;;;;;;0.68;0.68;;;7.00;99.90;;;;;;5066336;28;20029;-30
2023/12/23 00:47:35;;;;;;;0.70;0.70;;;7.00;99.90;;;;;;5068805;28;20032;-29
2023/12/23 00:50:01;;;;;;;0.50;0.50;;;7.00;99.90;;;;;;5068243;28;20395;-30
2023/12/23 00:52:28;;;;;;;0.65;0.65;;;7.00;99.90;;;;;;5069261;28;20111;-29
2023/12/23 00:54:54;;;;;;;1.17;0.60;;;7.00;99.90;;;;;;5066128;28;20032;-31
2023/12/23 00:57:20;;;;;;;0.75;0.75;;;7.10;99.90;;;;;;5064755;28;20607;-29
2023/12/23 00:59:46;;;;;;;0.55;0.55;;;7.10;99.90;;;;;;5061893;28;20476;-36
2023/12/23 01:02:12;;;;;;;0.60;0.60;;;7.00;99.90;;;;;;5067130;28;20093;-40
2023/12/23 01:04:38;;;;;;;0.68;0.68;;;7.00;99.90;;;;;;5067463;28;20507;-38
2023/12/23 01:07:04;;;;;;;0.75;0.70;;;6.90;99.90;;;;;;5063024;28;20043;-41
2023/12/23 01:09:30;;;;;;;1.38;0.70;;;6.90;99.90;;;;;;5066893;28;20033;-40
2023/12/23 01:11:56;;;;;;;0.60;0.60;;;7.00;99.90;;;;;;5061439;28;20090;-32
2023/12/23 01:14:21;;;;;;;0.80;0.80;;;7.00;99.90;;;;;;5066898;28;20035;-32
2023/12/23 01:16:47;;;;;;;0.70;0.70;;;7.00;99.90;;;;;;5064861;28;20474;-34
2023/12/23 01:19:12;;;;;;;3.20;0.90;;;7.00;99.90;;;;;;5065005;28;20417;-34
2023/12/23 01:21:38;;;;;;;0.60;0.60;;;7.00;99.90;;;;;;5067910;28;20036;-32
2023/12/23 01:24:03;;;;;;;0.70;0.70;;;6.90;99.90;;;;;;5065254;28;20028;-33
2023/12/23 01:26:30;;;;;;;0.60;0.60;;;6.90;99.90;;;;;;5066949;28;20111;-35
2023/12/23 01:29:00;;;;;;;0.60;0.60;;;6.90;99.90;;;;;;5063136;28;20029;-33
2023/12/23 01:31:29;;;;;;;0.82;0.82;;;6.90;99.90;;;;;;5066960;28;20051;-41
2023/12/23 01:33:55;;;;;;;0.60;0.60;;;6.80;99.90;;;;;;5066582;28;20064;-37
2023/12/23 01:36:20;;;;;;;1.08;0.60;;;6.80;99.90;;;;;;5066585;28;20056;-41
2023/12/23 01:38:46;;;;;;;0.80;0.80;;;6.80;99.90;;;;;;5067775;28;20024;-36
2023/12/23 01:41:11;;;;;;;0.70;0.70;;;6.80;99.90;;;;;;5067646;28;20020;-37
2023/12/23 01:43:37;;;;;;;0.60;0.60;;;6.80;99.90;;;;;;5067437;28;20047;-38
2023/12/23 01:46:03;;;;;;;0.57;0.57;;;6.70;99.90;;;;;;5064849;28;20042;-38
2023/12/23 01:48:34;;;;;;;0.98;0.98;;;6.70;99.90;;;;;;5067100;28;20074;-38
2023/12/23 01:51:00;;;;;;;0.75;0.70;;;6.70;99.90;;;;;;5062692;28;20037;-36
2023/12/23 01:53:26;;;;;;;0.70;0.70;;;6.70;99.90;;;;;;5067363;28;20488;-38
2023/12/23 01:55:52;;;;;;;0.60;0.60;;;6.70;99.90;;;;;;5067893;28;20043;-38
2023/12/23 01:58:20;;;;;;;0.63;0.63;;;6.70;99.90;;;;;;5065306;28;20033;-39
2023/12/23 02:00:45;;;;;;;0.80;0.80;;;6.70;99.90;;;;;;5065697;28;20148;-37
2023/12/23 02:03:11;;;;;;;0.60;0.60;;;6.70;99.90;;;;;;5061240;28;20535;-38
2023/12/23 02:05:37;;;;;;;0.60;0.60;;;6.60;99.90;;;;;;5063393;28;20020;-39
2023/12/23 02:08:02;;;;;;;0.60;0.60;;;6.60;99.90;;;;;;5064660;28;20025;-38
2023/12/23 02:10:28;;;;;;;0.70;0.70;;;6.60;99.90;;;;;;5060287;28;20381;-38
2023/12/23 02:13:23;;;;;;;0.60;0.60;;;6.60;99.90;;;;;;5065686;28;20036;-36
2023/12/23 02:15:51;;;;;;;1.15;1.13;;;6.60;99.90;;;;;;5065314;28;20025;-36
2023/12/23 02:18:16;;;;;;;1.20;0.60;;;6.50;99.90;;;;;;5064354;28;20146;-38
2023/12/23 02:20:49;;;;;;;0.70;0.70;;;6.60;99.90;;;;;;5062771;28;20051;-38
2023/12/23 02:23:15;;;;;;;0.70;0.70;;;6.70;99.90;;;;;;5066197;28;20036;-39
2023/12/23 02:25:42;;;;;;;0.60;0.60;;;6.60;99.90;;;;;;5065403;28;20280;-35
2023/12/23 02:28:10;;;;;;;0.75;0.75;;;6.60;99.90;;;;;;5064027;28;20016;-37
2023/12/23 02:30:40;;;;;;;0.70;0.70;;;6.70;99.90;;;;;;5064259;28;20491;-36
2023/12/23 02:33:06;;;;;;;0.77;0.77;;;6.60;99.90;;;;;;5066411;28;20032;-38
2023/12/23 02:35:32;;;;;;;1.48;0.75;;;6.60;99.90;;;;;;5065094;28;20020;-38
2023/12/23 02:37:57;;;;;;;0.70;0.70;;;6.60;99.90;;;;;;5058238;28;20111;-38
2023/12/23 02:40:23;;;;;;;0.77;0.77;;;6.60;99.90;;;;;;5064773;28;20108;-38
2023/12/23 02:42:49;;;;;;;0.57;0.57;;;6.60;99.90;;;;;;5062896;28;20188;-38
2023/12/23 02:45:14;;;;;;;0.60;0.60;;;6.60;99.90;;;;;;5061642;28;20020;-37
2023/12/23 02:47:40;;;;;;;0.50;0.50;;;6.60;99.90;;;;;;5058266;28;20043;-36
2023/12/23 02:50:06;;;;;;;0.60;0.60;;;6.60;99.90;;;;;;5063891;28;20016;-36
2023/12/23 02:52:31;;;;;;;0.70;0.70;;;6.60;99.90;;;;;;5057114;28;20737;-33
2023/12/23 02:54:57;;;;;;;0.63;0.63;;;6.60;99.90;;;;;;5064654;28;20043;-33
2023/12/23 02:57:23;;;;;;;0.60;0.60;;;6.60;99.90;;;;;;5064413;28;20467;-31
2023/12/23 02:59:48;;;;;;;0.77;0.77;;;6.50;99.90;;;;;;5065198;28;20507;-32
2023/12/23 03:02:14;;;;;;;0.50;0.50;;;6.60;99.90;;;;;;5061541;28;20087;-35
2023/12/23 03:04:39;;;;;;;0.60;0.60;;;6.60;99.90;;;;;;5062512;28;20023;-35
2023/12/23 03:07:05;;;;;;;1.75;0.70;;;6.50;99.90;;;;;;5062313;28;20024;-35
2023/12/23 03:09:31;;;;;;;0.60;0.60;;;6.60;99.90;;;;;;5065820;28;20031;-35
2023/12/23 03:11:56;;;;;;;0.90;0.65;;;6.50;99.90;;;;;;5060643;28;20029;-33
2023/12/23 03:14:22;;;;;;;0.52;0.52;;;6.50;99.90;;;;;;5065727;28;20021;-35
2023/12/23 03:16:47;;;;;;;0.60;0.60;;;6.50;99.90;;;;;;5062602;28;20028;-34
2023/12/23 03:19:13;;;;;;;0.60;0.60;;;6.50;99.90;;;;;;5059235;28;20052;-33
2023/12/23 03:21:43;;;;;;;0.70;0.70;;;6.50;99.90;;;;;;5064379;28;20132;-34
2023/12/23 03:24:09;;;;;;;0.60;0.60;;;6.50;99.90;;;;;;5067311;28;20507;-34
2023/12/23 03:26:35;;;;;;;0.70;0.70;;;6.50;99.90;;;;;;5064638;28;20031;-32
2023/12/23 03:29:00;;;;;;;0.60;0.60;;;6.50;99.90;;;;;;5066425;28;20523;-33
2023/12/23 03:31:26;;;;;;;0.70;0.70;;;6.50;99.90;;;;;;5061624;28;20527;-41
2023/12/23 03:33:51;;;;;;;0.60;0.60;;;6.50;99.90;;;;;;5061366;28;20079;-40
2023/12/23 03:36:20;;;;;;;0.60;0.60;;;6.50;99.90;;;;;;5061982;28;20020;-35
2023/12/23 03:38:45;;;;;;;1.13;0.73;;;6.50;99.90;;;;;;5060747;28;20116;-35
2023/12/23 03:41:11;;;;;;;0.90;0.90;;;6.40;99.90;;;;;;5062345;28;20467;-41
2023/12/23 03:43:37;;;;;;;1.05;0.98;;;6.50;99.90;;;;;;5076946;28;20443;-41
2023/12/23 03:46:03;;;;;;;0.60;0.60;;;6.50;99.90;;;;;;5062013;28;20025;-39
2023/12/23 03:48:29;;;;;;;0.70;0.70;;;6.50;99.90;;;;;;5066404;28;20048;-41
2023/12/23 03:50:55;;;;;;;0.88;0.85;;;6.50;99.90;;;;;;5062173;28;20455;-37
2023/12/23 03:53:20;;;;;;;0.60;0.60;;;6.50;99.90;;;;;;5060920;28;20499;-40
2023/12/23 03:55:46;;;;;;;0.65;0.65;;;6.50;99.90;;;;;;5063413;28;20024;-40
2023/12/23 03:58:11;;;;;;;0.63;0.63;;;6.40;99.90;;;;;;5060459;28;20395;-39
2023/12/23 04:00:37;;;;;;;0.65;0.60;;;6.40;99.90;;;;;;5063446;28;20032;-31
2023/12/23 04:03:03;;;;;;;4.68;0.70;;;6.40;99.90;;;;;;5061288;28;20027;-29
2023/12/23 04:05:29;;;;;;;0.70;0.70;;;6.40;99.90;;;;;;5059569;28;20025;-30
2023/12/23 04:07:54;;;;;;;0.70;0.70;;;6.40;99.90;;;;;;5064051;28;20468;-30
2023/12/23 04:10:20;;;;;;;0.50;0.50;;;6.40;99.90;;;;;;5063000;28;20464;-32
2023/12/23 04:12:46;;;;;;;0.50;0.50;;;6.40;99.90;;;;;;5063474;28;20032;-32
2023/12/23 04:15:11;;;;;;;0.63;0.63;;;6.40;99.90;;;;;;5066674;28;20115;-28
2023/12/23 04:17:40;;;;;;;0.60;0.60;;;6.40;99.90;;;;;;5061109;28;20108;-30
2023/12/23 04:20:07;;;;;;;1.35;0.60;;;6.40;99.90;;;;;;5064461;28;20029;-29
2023/12/23 04:22:32;;;;;;;0.60;0.60;;;6.40;99.90;;;;;;5065587;28;20094;-29
2023/12/23 04:25:01;;;;;;;0.60;0.60;;;6.40;99.90;;;;;;5064657;28;20032;-29
2023/12/23 04:27:26;;;;;;;0.70;0.70;;;6.30;99.90;;;;;;5068714;28;20029;-30
2023/12/23 04:29:52;;;;;;;0.63;0.63;;;6.40;99.90;;;;;;5068998;28;20400;-30
2023/12/23 04:32:18;;;;;;;0.60;0.60;;;6.40;99.90;;;;;;5068682;28;20036;-33
2023/12/23 04:34:43;;;;;;;0.63;0.63;;;6.30;99.90;;;;;;5065954;28;20627;-31
2023/12/23 04:37:09;;;;;;;0.50;0.50;;;6.30;99.90;;;;;;5069343;28;20476;-30
2023/12/23 04:39:34;;;;;;;0.60;0.60;;;6.30;99.90;;;;;;5064508;28;20027;-30
2023/12/23 04:42:00;;;;;;;0.50;0.50;;;6.40;99.90;;;;;;5060567;28;20028;-38
2023/12/23 04:44:27;;;;;;;1.20;0.70;;;6.40;99.90;;;;;;5065765;28;20025;-37
2023/12/23 04:46:53;;;;;;;0.60;0.60;;;6.40;99.90;;;;;;5068235;28;20571;-32
2023/12/23 04:49:19;;;;;;;0.80;0.80;;;6.40;99.90;;;;;;5065745;28;20028;-38
2023/12/23 04:51:45;;;;;;;0.50;0.50;;;6.40;99.90;;;;;;5068256;28;20495;-37
2023/12/23 04:54:13;;;;;;;0.63;0.60;;;6.40;99.90;;;;;;5066220;28;20031;-37
2023/12/23 04:56:40;;;;;;;0.68;0.68;;;6.40;99.90;;;;;;5065995;28;20016;-34
2023/12/23 04:59:06;;;;;;;1.15;0.60;;;6.40;99.90;;;;;;5064532;28;20393;-39
2023/12/23 05:01:32;;;;;;;0.57;0.57;;;6.40;99.90;;;;;;5067306;28;20509;-38
2023/12/23 05:03:57;;;;;;;0.60;0.60;;;6.30;99.90;;;;;;5065038;28;20016;-37
2023/12/23 05:06:23;;;;;;;0.60;0.60;;;6.40;99.90;;;;;;5068321;28;20082;-38
2023/12/23 05:08:49;;;;;;;0.60;0.60;;;6.40;99.90;;;;;;5066999;28;20050;-38
2023/12/23 05:11:14;;;;;;;0.60;0.60;;;6.40;99.90;;;;;;5068215;28;20036;-31
2023/12/23 05:13:40;;;;;;;0.60;0.60;;;6.40;99.90;;;;;;5064247;28;20036;-38
2023/12/23 05:16:06;;;;;;;0.70;0.70;;;6.40;99.90;;;;;;5059242;28;20825;-35
2023/12/23 05:18:31;;;;;;;0.63;0.63;;;6.40;99.90;;;;;;5066658;28;20024;-33
2023/12/23 05:20:57;;;;;;;0.60;0.60;;;6.40;99.90;;;;;;5061999;28;20030;-35
2023/12/23 05:23:22;;;;;;;0.60;0.60;;;6.40;99.90;;;;;;5067215;28;20784;-33
2023/12/23 05:25:48;;;;;;;0.60;0.60;;;6.40;99.90;;;;;;5066837;28;20039;-33
2023/12/23 05:28:14;;;;;;;0.80;0.68;;;6.40;99.90;;;;;;5068190;28;20427;-33
2023/12/23 05:30:39;;;;;;;0.60;0.60;;;6.40;99.90;;;;;;5067463;28;20040;-36
2023/12/23 05:33:05;;;;;;;0.70;0.70;;;6.40;99.90;;;;;;5067278;28;20687;-34
2023/12/23 05:35:31;;;;;;;0.60;0.60;;;6.40;99.90;;;;;;5066090;28;20028;-33
2023/12/23 05:37:56;;;;;;;0.60;0.60;;;6.40;99.90;;;;;;5066001;28;20055;-34
2023/12/23 05:40:22;;;;;;;0.70;0.70;;;6.40;99.90;;;;;;5065527;28;20040;-31
2023/12/23 05:42:47;;;;;;;0.50;0.50;;;6.40;99.90;;;;;;5065349;28;20566;-32
2023/12/23 05:45:14;;;;;;;0.70;0.70;;;6.40;99.90;;;;;;5067433;28;20379;-32
2023/12/23 05:47:40;;;;;;;0.50;0.50;;;6.40;99.90;;;;;;5067859;28;20426;-34
2023/12/23 05:50:06;;;;;;;0.57;0.57;;;6.40;99.90;;;;;;5062776;28;20066;-39
2023/12/23 05:52:32;;;;;;;0.75;0.75;;;6.30;99.90;;;;;;5063406;28;20028;-38
2023/12/23 05:54:58;;;;;;;2.15;0.70;;;6.30;99.90;;;;;;5067923;28;20017;-36
2023/12/23 05:57:23;;;;;;;0.60;0.60;;;6.30;99.90;;;;;;5061925;28;20405;-39
2023/12/23 05:59:49;;;;;;;0.60;0.60;;;6.30;99.90;;;;;;5061929;28;20593;-40
2023/12/23 06:02:14;;;;;;;0.77;0.77;;;6.30;99.90;;;;;;5062115;28;20048;-33
2023/12/23 06:04:40;;;;;;;0.60;0.60;;;6.30;99.90;;;;;;5068627;28;20491;-33
2023/12/23 06:07:05;;;;;;;0.63;0.63;;;6.30;99.90;;;;;;5061049;28;20108;-31
2023/12/23 06:09:31;;;;;;;0.60;0.60;;;6.30;99.90;;;;;;5067162;28;20059;-32
2023/12/23 06:11:57;;;;;;;0.60;0.60;;;6.30;99.90;;;;;;5066992;28;20033;-31
2023/12/23 06:14:23;;;;;;;0.57;0.57;;;6.30;99.90;;;;;;5066074;28;20107;-33
2023/12/23 06:16:48;;;;;;;0.60;0.60;;;6.30;99.90;;;;;;5066404;28;20031;-31
2023/12/23 06:19:14;;;;;;;0.70;0.70;;;6.30;99.90;;;;;;5067657;28;20124;-33
2023/12/23 06:21:45;;;;;;;0.60;0.60;;;6.30;99.90;;;;;;5062051;28;20062;-38
2023/12/23 06:24:11;;;;;;;0.80;0.70;;;6.20;99.90;;;;;;5061383;28;20040;-39
2023/12/23 06:26:37;;;;;;;0.60;0.60;;;6.20;99.90;;;;;;5066479;28;20033;-39
2023/12/23 06:29:03;;;;;;;0.55;0.55;;;6.20;99.90;;;;;;5063632;28;20033;-39
2023/12/23 06:31:28;;;;;;;0.60;0.60;;;6.30;99.90;;;;;;5064923;28;20483;-38
2023/12/23 06:33:54;;;;;;;0.50;0.50;;;6.20;99.90;;;;;;5061992;28;20052;-35
2023/12/23 06:36:20;;;;;;;0.60;0.60;;;6.20;99.90;;;;;;5060267;28;20142;-38
2023/12/23 06:38:45;;;;;;;0.50;0.50;;;6.30;99.90;;;;;;5061907;28;20029;-37
2023/12/23 06:41:12;;;;;;;0.50;0.50;;;6.30;99.90;;;;;;5064701;28;20504;-39
2023/12/23 06:43:38;;;;;;;0.63;0.60;;;6.30;99.90;;;;;;5060755;28;20380;-38
2023/12/23 06:46:03;;;;;;;2.28;0.63;;;6.30;99.90;;;;;;5062014;28;20033;-39
2023/12/23 06:48:29;;;;;;;0.50;0.50;;;6.30;99.90;;;;;;5062246;28;20032;-40
2023/12/23 06:50:55;;;;;;;0.60;0.60;;;6.30;99.90;;;;;;5064058;28;20036;-36
2023/12/23 06:53:20;;;;;;;0.60;0.60;;;6.30;99.90;;;;;;5066351;28;20494;-38
2023/12/23 06:55:46;;;;;;;1.23;0.70;;;6.40;99.90;;;;;;5062754;28;20956;-38
2023/12/23 06:58:11;;;;;;;0.50;0.50;;;6.30;99.90;;;;;;5066724;28;20040;-39
2023/12/23 07:00:37;;;;;;;0.60;0.60;;;6.30;99.90;;;;;;5063151;28;20032;-38
2023/12/23 07:03:05;;;;;;;0.60;0.60;;;6.30;99.90;;;;;;5061744;28;20055;-37
2023/12/23 07:05:30;;;;;;;0.60;0.60;;;6.40;99.90;;;;;;5063852;28;20065;-38
2023/12/23 07:07:56;;;;;;;0.77;0.77;;;6.40;99.90;;;;;;5060566;28;20024;-36
2023/12/23 07:10:21;;;;;;;0.70;0.70;;;6.40;99.90;;;;;;5065571;28;20459;-38
2023/12/23 07:12:47;;;;;;;0.60;0.60;;;6.40;99.90;;;;;;5064329;28;20117;-37
2023/12/23 07:15:13;;;;;;;0.60;0.60;;;6.40;99.90;;;;;;5062557;28;20028;-39
2023/12/23 07:17:39;;;;;;;0.60;0.60;;;6.40;99.90;;;;;;5060509;28;20077;-36
2023/12/23 07:20:05;;;;;;;1.17;0.82;;;6.40;99.90;;;;;;5063647;28;20352;-39
2023/12/23 07:22:31;;;;;;;0.60;0.60;;;6.40;99.90;;;;;;5062069;28;20043;-39
2023/12/23 07:24:56;;;;;;;0.93;0.60;;;6.30;99.90;;;;;;5064066;28;20029;-38
2023/12/23 07:27:22;;;;;;;0.77;0.77;;;6.40;99.90;;;;;;5064891;28;20025;-41
2023/12/23 07:29:48;;;;;;;1.95;0.60;;;6.30;99.90;;;;;;5064311;28;20763;-39
2023/12/23 07:32:15;;;;;;;0.60;0.60;;;6.40;99.90;;;;;;5063989;28;20040;-41
2023/12/23 07:34:40;;;;;;;0.73;0.73;;;6.40;99.90;;;;;;5064287;28;20037;-36
2023/12/23 07:37:08;;;;;;;0.60;0.60;;;6.40;99.90;;;;;;5065046;28;20060;-41
2023/12/23 07:39:34;;;;;;;0.63;0.63;;;6.40;99.90;;;;;;5060958;28;20019;-41
2023/12/23 07:42:00;;;;;;;0.60;0.60;;;6.40;99.90;;;;;;5064103;28;20024;-40
2023/12/23 07:44:26;;;;;;;0.60;0.60;;;6.40;99.90;;;;;;5057327;28;20159;-40
2023/12/23 07:46:52;;;;;;;0.50;0.50;;;6.50;99.90;;;;;;5063592;28;20455;-41
2023/12/23 07:49:17;;;;;;;0.50;0.50;;;6.50;99.90;;;;;;5063811;28;20105;-39
2023/12/23 07:51:43;;;;;;;0.70;0.70;;;6.40;99.90;;;;;;5062875;28;20060;-41
2023/12/23 07:54:09;;;;;;;0.50;0.50;;;6.40;99.90;;;;;;5062324;28;20507;-40
2023/12/23 07:56:35;;;;;;;0.63;0.63;;;6.50;99.90;;;;;;5061168;28;20513;-40
2023/12/23 07:59:00;;;;;;;0.60;0.60;;;6.50;99.90;;;;;;5062018;28;20056;-41
2023/12/23 08:01:26;;;;;;;0.60;0.60;;;6.50;99.90;;;;;;5067398;28;20025;-39
2023/12/23 08:03:52;;;;;;;0.70;0.70;;;6.50;99.90;;;;;;5068727;28;20028;-41
2023/12/23 08:06:18;;;;;;;0.98;0.80;;;6.50;99.90;;;;;;5062124;28;20031;-40
2023/12/23 08:08:45;;;;;;;0.60;0.60;;;6.50;99.90;;;;;;5067310;28;20056;-42
2023/12/23 08:11:11;;;;;;;0.68;0.68;;;6.50;99.90;;;;;;5064491;28;20050;-39
2023/12/23 08:13:37;;;;;;;0.52;0.52;;;6.50;99.90;;;;;;5066741;28;20028;-42
2023/12/23 08:16:03;;;;;;;1.20;0.60;;;6.60;99.90;;;;;;5067303;28;20135;-42
2023/12/23 08:18:30;;;;;;;0.63;0.63;;;6.60;99.90;;;;;;5071944;28;20017;-38
2023/12/23 08:20:56;;;;;;;0.70;0.70;;;6.60;99.90;;;;;;5065471;28;20020;-32
2023/12/23 08:23:22;;;;;;;0.70;0.70;;;6.60;99.90;;;;;;5064324;28;20033;-31
2023/12/23 08:25:48;;;;;;;0.80;0.60;;;6.60;99.90;;;;;;5065159;28;20033;-33
2023/12/23 08:28:14;;;;;;;0.52;0.52;;;6.60;99.90;;;;;;5070378;28;20031;-33
2023/12/23 08:30:40;;;;;;;0.75;0.60;;;6.60;99.90;;;;;;5071151;28;20151;-32
2023/12/23 08:33:06;;;;;;;1.08;1.08;;;6.70;99.90;;;;;;5067030;28;20463;-30
2023/12/23 08:35:31;;;;;;;0.70;0.70;;;6.70;99.90;;;;;;5065279;28;20384;-31
2023/12/23 08:37:58;;;;;;;0.60;0.60;;;6.70;99.90;;;;;;5066073;28;20032;-32
2023/12/23 08:40:24;;;;;;;0.90;0.70;;;6.70;99.90;;;;;;5068030;28;20082;-35
2023/12/23 08:42:50;;;;;;;1.00;1.00;;;6.70;99.90;;;;;;5068327;28;20028;-32
2023/12/23 08:45:17;;;;;;;1.20;1.10;;;6.80;99.90;;;;;;5065563;28;20064;-31
2023/12/23 08:47:43;;;;;;;2.10;1.73;;;6.80;99.90;;;;;;5068245;28;20032;-30
2023/12/23 08:50:09;;;;;;;1.70;1.60;;;6.80;99.90;;;;;;5067210;28;20029;-32
2023/12/23 08:52:34;;;;;;;2.80;1.55;;;6.80;99.90;;;;;;5069013;28;20443;-33
2023/12/23 08:55:01;;;;;;;1.20;1.20;;;6.80;99.90;;;;;;5067716;28;20040;-32
2023/12/23 08:57:27;;;;;;;0.90;0.90;;;6.70;99.90;;;;;;5065227;28;20131;-31
2023/12/23 08:59:54;;;;;;;1.05;1.05;;;6.80;99.90;;;;;;5066911;28;20052;-31
2023/12/23 09:02:20;;;;;;;1.38;1.20;;;6.80;99.90;;;;;;5062836;28;20123;-32
2023/12/23 09:04:45;;;;;;;1.10;1.10;;;6.80;99.90;;;;;;5069217;28;20506;-32
2023/12/23 09:07:12;;;;;;;0.82;0.82;;;6.80;99.90;;;;;;5064309;28;20465;-31
2023/12/23 09:09:40;;;;;;;0.80;0.80;;;6.80;99.90;;;;;;5062404;28;20123;-30
2023/12/23 09:12:07;;;;;;;1.40;0.80;;;6.80;99.90;;;;;;5063227;28;20039;-29
2023/12/23 09:14:33;;;;;;;0.70;0.70;;;6.80;99.90;;;;;;5067370;28;20029;-29
2023/12/23 09:16:59;;;;;;;0.70;0.70;;;6.80;99.90;;;;;;5062928;28;20039;-30
2023/12/23 09:19:25;;;;;;;0.70;0.70;;;6.80;99.90;;;;;;5066851;28;20025;-30
2023/12/23 09:21:51;;;;;;;0.60;0.60;;;6.80;99.90;;;;;;5066728;28;20111;-29
2023/12/23 09:24:16;;;;;;;0.60;0.60;;;6.90;99.90;;;;;;5068390;28;20032;-29
2023/12/23 09:26:43;;;;;;;0.90;0.90;;;6.90;99.90;;;;;;5067556;28;20035;-28
2023/12/23 09:29:11;;;;;;;0.80;0.80;;;6.90;99.90;;;;;;5067235;28;20039;-28
2023/12/23 09:31:37;;;;;;;0.90;0.90;;;6.90;99.90;;;;;;5066065;28;20637;-30
2023/12/23 09:34:02;;;;;;;0.98;0.90;;;6.90;99.90;;;;;;5066734;28;20029;-28
2023/12/23 09:36:28;;;;;;;0.70;0.70;;;6.90;99.90;;;;;;5059954;28;20033;-28
2023/12/23 09:38:53;;;;;;;0.73;0.73;;;6.90;99.90;;;;;;5067283;28;20032;-30
2023/12/23 09:41:19;;;;;;;0.73;0.73;;;6.90;99.90;;;;;;5067319;28;20479;-30
2023/12/23 09:43:47;;;;;;;0.70;0.70;;;7.00;99.90;;;;;;5065837;28;20055;-29
2023/12/23 09:46:15;;;;;;;0.95;0.95;;;6.90;99.90;;;;;;5065771;28;20025;-29
2023/12/23 09:48:41;;;;;;;0.70;0.70;;;6.90;99.90;;;;;;5064461;28;20559;-32
2023/12/23 09:51:07;;;;;;;0.70;0.70;;;6.90;99.90;;;;;;5065847;28;20124;-31
2023/12/23 09:53:37;;;;;;;1.23;0.68;;;6.90;99.90;;;;;;5068213;28;20020;-32
2023/12/23 09:56:04;;;;;;;0.65;0.65;;;7.00;99.90;;;;;;5065060;28;20079;-31
2023/12/23 09:58:29;;;;;;;0.57;0.57;;;7.00;99.90;;;;;;5066317;28;20495;-33
2023/12/23 10:00:55;;;;;;;0.60;0.60;;;6.90;99.90;;;;;;5065789;28;20033;-31
2023/12/23 10:03:23;;;;;;;0.57;0.57;;;7.00;99.90;;;;;;5060377;28;20537;-30
2023/12/23 10:05:51;;;;;;;0.60;0.60;;;7.00;99.90;;;;;;5060575;28;20108;-33
2023/12/23 10:08:17;;;;;;;0.70;0.70;;;6.90;99.90;;;;;;5061724;28;20108;-32
2023/12/23 10:10:46;;;;;;;0.68;0.65;;;7.00;99.90;;;;;;5059685;28;20108;-33
2023/12/23 10:13:11;;;;;;;0.65;0.65;;;7.00;99.90;;;;;;5064923;28;20032;-31
2023/12/23 10:15:39;;;;;;;0.60;0.60;;;7.00;99.90;;;;;;5064931;28;20082;-32
2023/12/23 10:18:06;;;;;;;0.60;0.60;;;7.00;99.90;;;;;;5061232;28;20454;-40
2023/12/23 10:20:32;;;;;;;0.60;0.60;;;7.00;99.90;;;;;;5063807;28;20036;-37
2023/12/23 10:22:58;;;;;;;0.80;0.80;;;7.00;99.90;;;;;;5064242;28;20111;-31
2023/12/23 10:25:24;;;;;;;0.75;0.75;;;7.00;99.90;;;;;;5076849;28;20055;-41
2023/12/23 10:27:54;;;;;;;0.70;0.70;;;7.00;99.90;;;;;;5065615;28;20060;-39
2023/12/23 10:30:25;;;;;;;0.57;0.57;;;7.00;99.90;;;;;;5044914;28;20036;-40
2023/12/23 10:32:53;;;;;;;0.68;0.68;;;7.00;99.90;;;;;;5062402;28;20039;-41
2023/12/23 10:35:20;;;;;;;0.60;0.60;;;7.00;99.90;;;;;;5061701;28;20162;-39
2023/12/23 10:37:47;;;;;;;0.70;0.70;;;6.90;99.90;;;;;;5064902;28;20029;-41
2023/12/23 10:40:23;;;;;;;0.77;0.77;;;7.00;99.90;;;;;;5065785;28;20440;-39
2023/12/23 10:42:50;;;;;;;0.63;0.63;;;6.90;99.90;;;;;;5064174;28;20478;-39
2023/12/23 10:45:16;;;;;;;0.60;0.60;;;6.90;99.90;;;;;;5061929;28;20036;-37
2023/12/23 10:47:42;;;;;;;1.17;0.68;;;6.90;99.90;;;;;;5063364;28;20024;-40
2023/12/23 10:50:09;;;;;;;1.75;0.60;;;6.90;99.90;;;;;;5065707;28;20086;-39
2023/12/23 10:52:36;;;;;;;0.70;0.70;;;6.90;99.90;;;;;;5063472;28;20029;-38
2023/12/23 10:55:03;;;;;;;0.70;0.70;;;6.90;99.90;;;;;;5061357;28;20028;-37
2023/12/23 10:57:30;;;;;;;0.60;0.60;;;6.90;99.90;;;;;;5064130;28;20422;-39
2023/12/23 10:59:56;;;;;;;0.60;0.60;;;6.80;99.90;;;;;;5064382;28;20040;-33
2023/12/23 11:02:29;;;;;;;0.60;0.60;;;6.80;99.90;;;;;;5065900;28;20040;-29
2023/12/23 11:04:57;;;;;;;0.60;0.60;;;6.80;99.90;;;;;;5065301;28;20037;-34
2023/12/23 11:07:29;;;;;;;0.60;0.60;;;6.70;99.90;;;;;;5065233;28;20048;-29
2023/12/23 11:10:01;;;;;;;0.60;0.60;;;6.70;99.90;;;;;;5066918;28;20049;-31
2023/12/23 11:12:31;;;;;;;0.60;0.60;;;6.70;99.90;;;;;;5076786;28;20531;-30
2023/12/23 11:15:00;;;;;;;0.60;0.60;;;6.70;99.90;;;;;;5064779;28;20025;-31
2023/12/23 11:17:28;;;;;;;0.60;0.60;;;6.70;99.90;;;;;;5063655;28;20032;-30
2023/12/23 11:20:01;;;;;;;0.50;0.50;;;6.60;99.90;;;;;;5047749;28;20032;-33
2023/12/23 11:22:29;;;;;;;0.80;0.80;;;6.60;99.90;;;;;;5062745;28;20044;-29
2023/12/23 11:25:01;;;;;;;0.60;0.60;;;6.50;99.90;;;;;;5073708;28;20374;-30
2023/12/23 11:27:37;;;;;;;0.55;0.55;;;6.50;99.90;;;;;;5060401;28;20028;-28
2023/12/23 11:30:10;;;;;;;0.60;0.60;;;6.50;99.90;;;;;;5063827;28;20024;-29
2023/12/23 11:32:41;;;;;;;0.70;0.70;;;6.40;99.90;;;;;;5062589;28;20542;-30
2023/12/23 11:35:14;;;;;;;0.60;0.60;;;6.40;99.90;;;;;;5064197;28;20369;-31
2023/12/23 11:38:09;;;;;;;0.60;0.60;;;6.40;99.90;;;;;;5058633;28;20029;-32
2023/12/23 11:40:36;;;;;;;0.65;0.65;;;6.40;99.90;;;;;;5067442;28;20162;-29
2023/12/23 11:43:04;;;;;;;0.70;0.70;;;6.40;99.90;;;;;;5061434;28;20025;-29
2023/12/23 11:45:30;;;;;;;0.63;0.63;;;6.40;99.90;;;;;;5070227;28;20756;-32
2023/12/23 11:47:56;;;;;;;0.70;0.70;;;6.40;99.90;;;;;;5068024;28;20024;-28
2023/12/23 11:50:22;;;;;;;0.70;0.70;;;6.40;99.90;;;;;;5067072;28;20470;-29
2023/12/23 11:52:48;;;;;;;0.60;0.60;;;6.40;99.90;;;;;;5066450;28;20025;-31
2023/12/23 11:55:16;;;;;;;0.63;0.63;;;6.40;99.90;;;;;;5066001;28;20024;-28
2023/12/23 11:57:42;;;;;;;0.73;0.73;;;6.40;99.90;;;;;;5061411;28;20484;-30
2023/12/23 12:00:08;;;;;;;0.60;0.60;;;6.30;99.90;;;;;;5069492;28;20081;-39
2023/12/23 12:02:34;;;;;;;0.57;0.57;;;6.30;99.90;;;;;;5066168;28;20033;-39
2023/12/23 12:05:00;;;;;;;0.70;0.70;;;6.30;99.90;;;;;;5064684;28;20032;-40
2023/12/23 12:07:26;;;;;;;0.60;0.60;;;6.30;99.90;;;;;;5061773;28;20021;-41
2023/12/23 12:09:52;;;;;;;0.60;0.60;;;6.30;99.90;;;;;;5067238;28;20061;-34
2023/12/23 12:12:18;;;;;;;0.60;0.60;;;6.30;99.90;;;;;;5061657;28;20025;-33
2023/12/23 12:14:44;;;;;;;0.57;0.57;;;6.30;99.90;;;;;;5065187;28;20056;-34
2023/12/23 12:17:09;;;;;;;0.63;0.63;;;6.30;99.90;;;;;;5061842;28;20047;-31
2023/12/23 12:19:36;;;;;;;0.70;0.70;;;6.30;99.90;;;;;;5065026;28;20472;-31
2023/12/23 12:22:03;;;;;;;0.65;0.65;;;6.30;99.90;;;;;;5063631;28;20052;-31
2023/12/23 12:24:35;;;;;;;0.70;0.70;;;6.30;99.90;;;;;;5065740;28;20383;-30
2023/12/23 12:27:02;;;;;;;0.60;0.60;;;6.30;99.90;;;;;;5067060;28;20043;-36
2023/12/23 12:29:27;;;;;;;0.60;0.60;;;6.40;99.90;;;;;;5066454;28;20041;-31
2023/12/23 12:31:54;;;;;;;0.70;0.70;;;6.40;99.90;;;;;;5064637;28;20052;-31
2023/12/23 12:34:23;;;;;;;0.70;0.70;;;6.40;99.90;;;;;;5065891;28;20123;-30
2023/12/23 12:36:52;;;;;;;0.75;0.75;;;6.40;99.90;;;;;;5067417;28;20541;-32
2023/12/23 12:39:22;;;;;;;0.70;0.70;;;6.50;99.90;;;;;;5069131;28;20874;-34
2023/12/23 12:41:51;;;;;;;0.70;0.70;;;6.50;99.90;;;;;;5061054;28;20108;-34
2023/12/23 12:44:20;;;;;;;0.70;0.70;;;6.50;99.90;;;;;;5064054;28;20021;-34
2023/12/23 12:46:55;;;;;;;;;;;6.50;99.90;;;;;;5064512;28;20085;-32
2023/12/23 12:49:23;;;;;;;0.60;0.60;;;6.50;99.90;;;;;;5065064;28;19989;-31
2023/12/23 12:51:52;;;;;;;0.60;0.60;;;6.50;99.90;;;;;;5064542;28;20112;-33
2023/12/23 12:54:20;;;;;;;0.65;0.65;;;6.50;99.90;;;;;;5080175;28;20190;-32